Driver Category
Utility Brief Information
title:

Ricoh SmarThru 4 Utility

Vendor:Ricoh
Category:Multifunction
License:Utility
OS: Windows 7/Vista/Server 2008 (x32/x64)
Version: 4.04
File Size: 151,224 KB
Release: 1 Apr 2010
Update: 29 Jul 2011
Filename: z43934l10.exe
Download Instruction
Brand:Ricoh, Product:Multifunction, Model: Aficio FX200L, Utility: 4.04, OS: Windows 7/Vista/Server 2008 (x32/x64). Ricoh Aficio FX200L SmarThru 4 4.04 Windows 7/Vista/Server 2008 (x32/x64) was collected from Ricoh official site for Ricoh Multifunction. In order to ensure the right driver download, Official driver links from Ricoh are listed at first. If the official driver can not be downloaded, a copy of official driver can be provided at local server download.opendrivers.com, download1.opendrivers.com, or dl2.opendrivers.com. Besides, Both the driver developer's home page and driver download and support page be provided as well in my Ricoh page.
Official Driver Download
Files in Driver Package
   Date      Time    Attr         Size   Compressed  Name
------------------- ----- ------------ ------------  ------------------------
2007-05-07 10:31:42 ....A       147656        14664  Type103 SmarThru4/62Finish.bmp
2007-05-07 10:31:48 ....A       147656        17951  Type103 SmarThru4/62Start.bmp
2007-05-07 10:31:54 ....A       470734       127566  Type103 SmarThru4/back62.bmp
2007-05-07 10:31:56 ....A          885          315  Type103 SmarThru4/Copy.xml
2007-05-07 10:32:16 ....A      2045514      2037740  Type103 SmarThru4/data1.cab
2007-05-07 10:32:22 ....A       139022        43269  Type103 SmarThru4/data1.hdr
2007-05-07 10:34:54 ....A     14873258     14822882  Type103 SmarThru4/data2.cab
2007-05-07 10:34:56 ....A         7297         4875  Type103 SmarThru4/DgiVecp.cat
2007-05-07 10:35:00 ....A        41984        19613  Type103 SmarThru4/DgivEcp.sys
2007-05-07 10:35:06 ....A        47104        21161  Type103 SmarThru4/DgivEcp64.sys
2007-05-07 10:35:10 ....A        54072        25848  Type103 SmarThru4/DgivEcpVista.sys
2007-05-07 10:35:14 ....A        41984        19783  Type103 SmarThru4/DgivEcpXP.sys
2007-05-07 10:35:14 ....A         1070          328  Type103 SmarThru4/Fax.xml
2007-05-07 10:35:20 ....A       346602       331289  Type103 SmarThru4/ikernel.ex_
2007-05-07 10:35:22 ....A          884          311  Type103 SmarThru4/Image.xml
2007-05-07 10:35:24 ....A         1532          536  Type103 SmarThru4/layout.bin
2007-05-07 10:35:26 ....A           99           83  Type103 SmarThru4/ocrguid.ini
2007-05-07 10:35:28 ....A         1256          384  Type103 SmarThru4/OCRLang.xml
2007-05-07 10:35:30 ....A          729          327  Type103 SmarThru4/Print.xml
2010-01-16 10:44:18 D....            0            0  Type103 SmarThru4/ReadIRIS
2007-01-11 09:17:08 ....A           28           28  Type103 SmarThru4/ReadIRIS/autorun.inf
2010-01-16 10:44:26 D....            0            0  Type103 SmarThru4/ReadIRIS/Data
2007-01-11 09:17:08 ....A        40256        38109  Type103 SmarThru4/ReadIRIS/Data/alphabets.tif
2007-01-11 09:17:08 ....A      1198433      1118116  Type103 SmarThru4/ReadIRIS/Data/autoformat.jpg
2007-01-11 09:17:10 ....A       112177       111767  Type103 SmarThru4/ReadIRIS/Data/background.jpg
2007-01-11 09:17:10 ....A         8336         6907  Type103 SmarThru4/ReadIRIS/Data/barcode.tif
2007-01-11 09:17:12 ....A        57802        54490  Type103 SmarThru4/ReadIRIS/Data/brazilian.tif
2007-01-11 09:17:12 ....A       793552       699717  Type103 SmarThru4/ReadIRIS/Data/catalan.jpg
2007-01-11 09:17:12 ....A       879938       831231  Type103 SmarThru4/ReadIRIS/Data/colors.jpg
2007-01-11 09:17:14 ....A        32982        31800  Type103 SmarThru4/ReadIRIS/Data/czech.tif
2007-01-11 09:17:14 ....A       712059       600583  Type103 SmarThru4/ReadIRIS/Data/deskew.jpg
2007-01-11 09:17:14 ....A       154366       153901  Type103 SmarThru4/ReadIRIS/Data/digital.jpg
2007-01-11 09:17:16 ....A       623876       613229  Type103 SmarThru4/ReadIRIS/Data/dutch.jpg
2007-01-11 09:17:16 ....A      1139612      1123315  Type103 SmarThru4/ReadIRIS/Data/english.jpg
2007-01-11 09:17:16 ....A        56402        52945  Type103 SmarThru4/ReadIRIS/Data/french.tif
2007-01-11 09:17:18 ....A       861651       752550  Type103 SmarThru4/ReadIRIS/Data/german.jpg
2007-01-11 09:17:18 ....A        78096        74601  Type103 SmarThru4/ReadIRIS/Data/greek.tif
2007-01-11 09:17:18 ....A         6852         6560  Type103 SmarThru4/ReadIRIS/Data/handprinting.tif
2007-01-11 09:17:20 ....A        74840        72768  Type103 SmarThru4/ReadIRIS/Data/italian.tif
2007-01-11 09:17:20 ....A        18100        17838  Type103 SmarThru4/ReadIRIS/Data/japanese.tif
2007-01-11 09:17:20 ....A        36060        34730  Type103 SmarThru4/ReadIRIS/Data/lite.tif
2007-01-11 09:17:22 ....A        45444        44448  Type103 SmarThru4/ReadIRIS/Data/matrix.tif
2007-01-11 09:17:22 ....A       228732       218360  Type103 SmarThru4/ReadIRIS/Data/multipage.tif
2007-01-11 09:17:24 ....A       109200       105353  Type103 SmarThru4/ReadIRIS/Data/norwegian.tif
2007-01-11 09:17:24 ....A       179188       177671  Type103 SmarThru4/ReadIRIS/Data/polish.jpg
2007-01-11 09:17:24 ....A       551961       542336  Type103 SmarThru4/ReadIRIS/Data/russian.jpg
2007-01-11 09:17:26 ....A        21020        19549  Type103 SmarThru4/ReadIRIS/Data/simplifiedchinese.tif
2007-01-11 09:17:26 ....A        82978        81384  Type103 SmarThru4/ReadIRIS/Data/spanish.tif
2007-01-11 09:17:26 ....A        99930        96706  Type103 SmarThru4/ReadIRIS/Data/swedish.tif
2007-01-11 09:17:28 ....A       918600       764096  Type103 SmarThru4/ReadIRIS/Data/tables.jpg
2007-01-11 09:17:28 ....A       435993       396486  Type103 SmarThru4/ReadIRIS/Data/traditionalchinese.jpg
2007-01-11 09:17:28 ....A      6200293      6199061  Type103 SmarThru4/ReadIRIS/Data1.cab
2007-01-11 09:17:30 ....A       145997        41189  Type103 SmarThru4/ReadIRIS/Data1.hdr
2007-01-11 09:17:30 ....A     81853417     81815868  Type103 SmarThru4/ReadIRIS/Data2.cab
2010-01-16 10:44:18 D....            0            0  Type103 SmarThru4/ReadIRIS/Handprinting
2010-01-14 17:20:18 ....A        52944        16719  Type103 SmarThru4/ReadIRIS/Handprinting/template.doc
2007-01-11 09:17:44 ....A        23798        19839  Type103 SmarThru4/ReadIRIS/Handprinting/template.pdf
2010-01-16 10:44:16 D....            0            0  Type103 SmarThru4/ReadIRIS/Help
2010-01-16 10:44:16 D....            0            0  Type103 SmarThru4/ReadIRIS/Help/Brz
2007-01-11 09:17:44 ....A        60851        53266  Type103 SmarThru4/ReadIRIS/Help/Brz/editlex.chm
2007-01-11 09:17:46 ....A       565574       552518  Type103 SmarThru4/ReadIRIS/Help/Brz/readiris.chm
2010-01-16 10:44:14 D....            0            0  Type103 SmarThru4/ReadIRIS/Help/Dut
2007-01-11 09:17:46 ....A        61427        53764  Type103 SmarThru4/ReadIRIS/Help/Dut/editlex.chm
2007-01-11 09:17:48 ....A       580674       567609  Type103 SmarThru4/ReadIRIS/Help/Dut/readiris.chm
2010-01-16 10:44:12 D....            0            0  Type103 SmarThru4/ReadIRIS/Help/Eng
2007-01-11 09:17:50 ....A        60339        52647  Type103 SmarThru4/ReadIRIS/Help/Eng/editlex.chm
2007-01-11 09:17:50 ....A       565622       552573  Type103 SmarThru4/ReadIRIS/Help/Eng/readiris.chm
2010-01-16 10:44:10 D....            0            0  Type103 SmarThru4/ReadIRIS/Help/Frn
2007-01-11 09:17:52 ....A        62579        54988  Type103 SmarThru4/ReadIRIS/Help/Frn/editlex.chm
2007-01-11 09:17:52 ....A       594664       581526  Type103 SmarThru4/ReadIRIS/Help/Frn/readiris.chm
2010-01-16 10:44:08 D....            0            0  Type103 SmarThru4/ReadIRIS/Help/Grm
2007-01-11 09:17:54 ....A        61887        54202  Type103 SmarThru4/ReadIRIS/Help/Grm/editlex.chm
2007-01-11 09:17:54 ....A       596902       583808  Type103 SmarThru4/ReadIRIS/Help/Grm/readiris.chm
2010-01-16 10:44:06 D....            0            0  Type103 SmarThru4/ReadIRIS/Help/Itl
2007-01-11 09:17:56 ....A        62077        54393  Type103 SmarThru4/ReadIRIS/Help/Itl/editlex.chm
2007-01-11 09:17:56 ....A       595558       582479  Type103 SmarThru4/ReadIRIS/Help/Itl/readiris.chm
2010-01-16 10:44:04 D....            0            0  Type103 SmarThru4/ReadIRIS/Help/Spn
2007-01-11 09:17:58 ....A        61807        54126  Type103 SmarThru4/ReadIRIS/Help/Spn/editlex.chm
2007-01-11 09:18:00 ....A       579462       566435  Type103 SmarThru4/ReadIRIS/Help/Spn/readiris.chm
2007-01-11 09:18:00 ....A       346602       331289  Type103 SmarThru4/ReadIRIS/ikernel.ex_
2007-01-11 09:18:00 ....A          455          147  Type103 SmarThru4/ReadIRIS/layout.bin
2010-01-16 10:44:00 D....            0            0  Type103 SmarThru4/ReadIRIS/Manual
2007-01-11 09:18:02 ....A       653874       632112  Type103 SmarThru4/ReadIRIS/Manual/asian.pdf
2010-01-16 10:44:00 D....            0            0  Type103 SmarThru4/ReadIRIS/Manual/Brz
2007-01-11 09:18:02 ....A      5331146      5196689  Type103 SmarThru4/ReadIRIS/Manual/Brz/readiris.pdf
2010-01-16 10:43:56 D....            0            0  Type103 SmarThru4/ReadIRIS/Manual/Dut
2007-01-11 09:18:06 ....A      4988445      4849937  Type103 SmarThru4/ReadIRIS/Manual/Dut/readiris.pdf
2010-01-16 10:43:52 D....            0            0  Type103 SmarThru4/ReadIRIS/Manual/Eng
2007-01-11 09:18:08 ....A      5331146      5196689  Type103 SmarThru4/ReadIRIS/Manual/Eng/readiris.pdf
2010-01-16 10:43:48 D....            0            0  Type103 SmarThru4/ReadIRIS/Manual/Frn
2007-01-11 09:18:10 ....A      4668613      4525470  Type103 SmarThru4/ReadIRIS/Manual/Frn/readiris.pdf
2010-01-16 10:43:44 D....            0            0  Type103 SmarThru4/ReadIRIS/Manual/Grm
2007-01-11 09:18:12 ....A      4540913      4398936  Type103 SmarThru4/ReadIRIS/Manual/Grm/readiris.pdf
2010-01-16 10:43:40 D....            0            0  Type103 SmarThru4/ReadIRIS/Manual/Itl
2007-01-11 09:18:14 ....A      5200309      5060039  Type103 SmarThru4/ReadIRIS/Manual/Itl/readiris.pdf
2010-01-16 10:43:36 D....            0            0  Type103 SmarThru4/ReadIRIS/Manual/Spn
2007-01-11 09:18:18 ....A      4818199      4675966  Type103 SmarThru4/ReadIRIS/Manual/Spn/readiris.pdf
2010-01-16 10:43:34 D....            0            0  Type103 SmarThru4/ReadIRIS/Readme
2007-01-11 09:18:20 ....A        55717        55403  Type103 SmarThru4/ReadIRIS/Readme/goodcontacts1.gif
2007-01-11 09:18:20 ....A        26027        26015  Type103 SmarThru4/ReadIRIS/Readme/goodcontacts2.gif
2007-01-11 09:18:20 ....A       149958        20301  Type103 SmarThru4/ReadIRIS/Readme/readme.htm
2007-01-11 09:18:22 ....A        39725        39728  Type103 SmarThru4/ReadIRIS/Readme/styles.gif
2007-01-11 09:18:22 ....A        46408        46397  Type103 SmarThru4/ReadIRIS/Readme/windows1.gif
2007-01-11 09:18:22 ....A         8955         8955  Type103 SmarThru4/ReadIRIS/Readme/windows2.gif
2010-01-16 10:43:34 D....            0            0  Type103 SmarThru4/ReadIRIS/Rgstrwiz
2007-01-11 09:18:24 ....A        40960        11610  Type103 SmarThru4/ReadIRIS/Rgstrwiz/regri50.exe
2007-01-11 09:18:24 ....A          152          121  Type103 SmarThru4/ReadIRIS/Rgstrwiz/regstr.cfg
2007-01-11 09:18:24 ....A       720896       260969  Type103 SmarThru4/ReadIRIS/Rgstrwiz/regstr.dll
2007-01-11 09:18:26 ....A       241076        62143  Type103 SmarThru4/ReadIRIS/setup.bmp
2007-01-11 09:18:26 ....A       168448        54209  Type103 SmarThru4/ReadIRIS/Setup.exe
2007-01-11 09:18:28 ....A          279          184  Type103 SmarThru4/ReadIRIS/Setup.ini
2007-01-11 09:18:28 ....A       173262        46383  Type103 SmarThru4/ReadIRIS/setup.inx
2007-02-01 14:29:00 ....A        10041         1558  Type103 SmarThru4/ReadIRIS/setup.iss
2007-05-07 10:35:32 ....A          171          119  Type103 SmarThru4/readiris10.shared
2007-05-07 10:35:34 ....A         1400          348  Type103 SmarThru4/Scan.xml
2007-05-07 10:35:38 ....A       172032        76060  Type103 SmarThru4/SecSNMP.dll
2007-05-07 10:35:44 ....A       168448        54209  Type103 SmarThru4/Setup.exe
2008-03-12 17:12:30 ....A          379          215  Type103 SmarThru4/Setup.ini
2007-05-07 10:35:46 ....A          362          200  Type103 SmarThru4/Setup.ini.org
2007-05-07 10:35:52 ....A       181410        46653  Type103 SmarThru4/setup.inx
2007-05-07 10:35:54 ....A          959          345  Type103 SmarThru4/setup.iss
2010-01-16 10:42:26 D....            0            0  Type103 SmarThru4/setupdir
2010-01-16 10:42:26 D....            0            0  Type103 SmarThru4/setupdir/0005
2007-05-07 10:29:12 ....A          441          197  Type103 SmarThru4/setupdir/0005/ConfigManagerOEM.xml
2007-05-07 10:29:14 ....A         2678          425  Type103 SmarThru4/setupdir/0005/SmarThruRes-ConfigurationManager.xml
2010-01-16 10:42:26 D....            0            0  Type103 SmarThru4/setupdir/0006
2007-05-07 10:29:20 ....A          416          192  Type103 SmarThru4/setupdir/0006/ConfigManagerOEM.xml
2007-05-07 10:29:22 ....A         1067          253  Type103 SmarThru4/setupdir/0006/SmarThruRes-ConfigurationManager.xml
2010-01-16 10:42:26 D....            0            0  Type103 SmarThru4/setupdir/0007
2007-05-07 10:29:28 ....A          439          197  Type103 SmarThru4/setupdir/0007/ConfigManagerOEM.xml
2007-05-07 10:29:30 ....A         2148          385  Type103 SmarThru4/setupdir/0007/SmarThruRes-ConfigurationManager.xml
2010-01-16 10:42:26 D....            0            0  Type103 SmarThru4/setupdir/0009
2007-05-07 10:29:38 ....A          431          196  Type103 SmarThru4/setupdir/0009/ConfigManagerOEM.xml
2007-05-07 10:29:40 ....A         2218          391  Type103 SmarThru4/setupdir/0009/SmarThruRes-ConfigurationManager.xml
2010-01-16 10:42:26 D....            0            0  Type103 SmarThru4/setupdir/000a
2007-05-07 10:29:48 ....A          439          197  Type103 SmarThru4/setupdir/000a/ConfigManagerOEM.xml
2007-05-07 10:29:50 ....A         2253          402  Type103 SmarThru4/setupdir/000a/SmarThruRes-ConfigurationManager.xml
2010-01-16 10:42:26 D....            0            0  Type103 SmarThru4/setupdir/000b
2007-05-07 10:30:00 ....A          441          197  Type103 SmarThru4/setupdir/000b/ConfigManagerOEM.xml
2007-05-07 10:30:02 ....A         2260          405  Type103 SmarThru4/setupdir/000b/SmarThruRes-ConfigurationManager.xml
2010-01-16 10:42:26 D....            0            0  Type103 SmarThru4/setupdir/0010
2007-05-07 10:30:10 ....A          439          197  Type103 SmarThru4/setupdir/0010/ConfigManagerOEM.xml
2007-05-07 10:30:12 ....A         2673          419  Type103 SmarThru4/setupdir/0010/SmarThruRes-ConfigurationManager.xml
2010-01-16 10:42:26 D....            0            0  Type103 SmarThru4/setupdir/0012
2007-05-07 10:30:20 ....A          440          209  Type103 SmarThru4/setupdir/0012/ConfigManagerOEM.xml
2007-05-07 10:30:24 ....A         2656          453  Type103 SmarThru4/setupdir/0012/SmarThruRes-ConfigurationManager.xml
2010-01-16 10:42:26 D....            0            0  Type103 SmarThru4/setupdir/0013
2007-05-07 10:30:30 ....A          416          192  Type103 SmarThru4/setupdir/0013/ConfigManagerOEM.xml
2007-05-07 10:30:32 ....A          930          241  Type103 SmarThru4/setupdir/0013/SmarThruRes-ConfigurationManager.xml
2010-01-16 10:42:26 D....            0            0  Type103 SmarThru4/setupdir/0014
2007-05-07 10:30:40 ....A          416          192  Type103 SmarThru4/setupdir/0014/ConfigManagerOEM.xml
2007-05-07 10:30:42 ....A          914          239  Type103 SmarThru4/setupdir/0014/SmarThruRes-ConfigurationManager.xml
2010-01-16 10:42:26 D....            0            0  Type103 SmarThru4/setupdir/0019
2007-05-07 10:30:50 ....A          439          197  Type103 SmarThru4/setupdir/0019/ConfigManagerOEM.xml
2007-05-07 10:30:54 ....A         2877          466  Type103 SmarThru4/setupdir/0019/SmarThruRes-ConfigurationManager.xml
2010-01-16 10:42:26 D....            0            0  Type103 SmarThru4/setupdir/001d
2007-05-07 10:31:00 ....A          416          192  Type103 SmarThru4/setupdir/001d/ConfigManagerOEM.xml
2007-05-07 10:31:02 ....A         1082          262  Type103 SmarThru4/setupdir/001d/SmarThruRes-ConfigurationManager.xml
2010-01-16 10:42:26 D....            0            0  Type103 SmarThru4/setupdir/040c
2007-05-07 10:31:08 ....A          439          197  Type103 SmarThru4/setupdir/040c/ConfigManagerOEM.xml
2007-05-07 10:31:10 ....A         2247          402  Type103 SmarThru4/setupdir/040c/SmarThruRes-ConfigurationManager.xml
2010-01-16 10:42:26 D....            0            0  Type103 SmarThru4/setupdir/0416
2007-05-07 10:31:16 ....A          439          197  Type103 SmarThru4/setupdir/0416/ConfigManagerOEM.xml
2007-05-07 10:31:18 ....A         2247          399  Type103 SmarThru4/setupdir/0416/SmarThruRes-ConfigurationManager.xml
2010-01-16 10:42:26 D....            0            0  Type103 SmarThru4/setupdir/0804
2007-05-07 10:31:24 ....A          433          194  Type103 SmarThru4/setupdir/0804/ConfigManagerOEM.xml
2007-05-07 10:31:26 ....A         2124          417  Type103 SmarThru4/setupdir/0804/SmarThruRes-ConfigurationManager.xml
2010-01-16 10:42:26 D....            0            0  Type103 SmarThru4/setupdir/0816
2007-05-07 10:31:32 ....A          439          197  Type103 SmarThru4/setupdir/0816/ConfigManagerOEM.xml
2007-05-07 10:31:34 ....A         2232          393  Type103 SmarThru4/setupdir/0816/SmarThruRes-ConfigurationManager.xml
2007-01-09 21:25:04 ....A          294          160  Type103 SmarThru4/SmarThruConfigOrg.xml
2007-11-09 14:23:30 ....A        10147         2187  Type103 SmarThru4/SmarThruOptions.xml
2007-05-07 10:36:06 ....A       367148       103573  Type103 SmarThru4/Splash.bmp
2007-05-07 10:36:10 ....A        57344        18783  Type103 SmarThru4/ssdevm.dll
2007-05-07 10:36:16 ....A       155648        74200  Type103 SmarThru4/sskinst.exe
2007-05-07 10:36:18 ....A         7297         4871  Type103 SmarThru4/ssport.cat
2007-05-07 10:36:20 ....A         4608         1611  Type103 SmarThru4/SSPORT.sys
2007-05-07 10:36:24 ....A        11576         6290  Type103 SmarThru4/SSPortVista.sys
2007-05-07 10:36:28 ....A        61256        29353  Type103 SmarThru4/ST62Inst.bmp
2007-05-07 10:36:32 ....A        36864        11630  Type103 SmarThru4/SvcMan.exe
2010-01-16 10:42:26 D....            0            0  Type103 SmarThru4
------------------- ----- ------------ ------------  ------------------------
                             159552152    154728658  142 files, 39 folders
Backup Download Server
Utility Summary
Supported Operating System:
  • Windows 7
  • Windows 7 (x64)
  • Windows Server 2008
  • Windows Server 2008 (x64)
  • Windows Server 2008 R2 (x64)
  • Utility Support Models
    The driver can be applied to the following product models:
    The Related Drivers